<?xml version="1.0" encoding="UTF-8" standalone="no" ?>
<gpx xmlns="http://www.topografix.com/GPX/1/1" xmlns:xsi="http://www.w3.org/2001/XMLSchema-instance" xsi:schemaLocation="http://www.topografix.com/GPX/1/1 http://www.topografix.com/GPX/1/1/gpx.xsd" version="1.1" creator="VisuGPX - https://www.visugpx.com">
  <metadata>
    <name>Norvège</name>
  </metadata>
  <trk>
    <name><![CDATA[Tour d'Europe: étape 035]]></name>
    <trkseg>
      <trkpt lat="62.69869" lon="6.70057">
        <ele>50.010767</ele>
        <time>2020-08-02T07:46:46.899Z</time>
      </trkpt>
      <trkpt lat="62.70016" lon="6.70437">
        <ele>53.311317</ele>
        <time>2020-08-02T07:47:37.865Z</time>
      </trkpt>
      <trkpt lat="62.70203" lon="6.70688">
        <ele>60.625888</ele>
        <time>2020-08-02T07:48:46.876Z</time>
      </trkpt>
      <trkpt lat="62.70416" lon="6.70988">
        <ele>61.520303</ele>
        <time>2020-08-02T07:50:03.874Z</time>
      </trkpt>
      <trkpt lat="62.70629" lon="6.71234">
        <ele>62.11216</ele>
        <time>2020-08-02T07:50:51.865Z</time>
      </trkpt>
      <trkpt lat="62.70834" lon="6.71524">
        <ele>62.910519</ele>
        <time>2020-08-02T07:51:41.867Z</time>
      </trkpt>
      <trkpt lat="62.71019" lon="6.71896">
        <ele>61.803485</ele>
        <time>2020-08-02T07:52:33.865Z</time>
      </trkpt>
      <trkpt lat="62.71148" lon="6.72407">
        <ele>55.582612</ele>
        <time>2020-08-02T07:53:19.860Z</time>
      </trkpt>
      <trkpt lat="62.7114" lon="6.72951">
        <ele>56.812764</ele>
        <time>2020-08-02T07:54:05.860Z</time>
      </trkpt>
      <trkpt lat="62.71157" lon="6.73401">
        <ele>81.424969</ele>
        <time>2020-08-02T07:55:50.857Z</time>
      </trkpt>
      <trkpt lat="62.71246" lon="6.7383">
        <ele>72.969148</ele>
        <time>2020-08-02T07:57:02.901Z</time>
      </trkpt>
      <trkpt lat="62.71349" lon="6.74289">
        <ele>73.330222</ele>
        <time>2020-08-02T07:57:50.876Z</time>
      </trkpt>
      <trkpt lat="62.71495" lon="6.74689">
        <ele>74.381457</ele>
        <time>2020-08-02T07:58:47.870Z</time>
      </trkpt>
      <trkpt lat="62.71676" lon="6.74965">
        <ele>78.059387</ele>
        <time>2020-08-02T07:59:53.912Z</time>
      </trkpt>
      <trkpt lat="62.71879" lon="6.75143">
        <ele>84.182577</ele>
        <time>2020-08-02T08:01:07.869Z</time>
      </trkpt>
      <trkpt lat="62.72095" lon="6.75211">
        <ele>89.678289</ele>
        <time>2020-08-02T08:02:22.890Z</time>
      </trkpt>
      <trkpt lat="62.72305" lon="6.75346">
        <ele>88.210762</ele>
        <time>2020-08-02T08:03:21.877Z</time>
      </trkpt>
      <trkpt lat="62.72499" lon="6.75665">
        <ele>80.876928</ele>
        <time>2020-08-02T08:04:03.869Z</time>
      </trkpt>
      <trkpt lat="62.72651" lon="6.75963">
        <ele>81.694933</ele>
        <time>2020-08-02T08:04:45.875Z</time>
      </trkpt>
      <trkpt lat="62.72789" lon="6.76346">
        <ele>83.179287</ele>
        <time>2020-08-02T08:05:33.865Z</time>
      </trkpt>
      <trkpt lat="62.72928" lon="6.76766">
        <ele>82.929099</ele>
        <time>2020-08-02T08:06:27.899Z</time>
      </trkpt>
      <trkpt lat="62.73035" lon="6.77215">
        <ele>82.864152</ele>
        <time>2020-08-02T08:07:12.860Z</time>
      </trkpt>
      <trkpt lat="62.73097" lon="6.77659">
        <ele>81.728803</ele>
        <time>2020-08-02T08:07:55.870Z</time>
      </trkpt>
      <trkpt lat="62.73135" lon="6.78126">
        <ele>85.906038</ele>
        <time>2020-08-02T08:08:40.880Z</time>
      </trkpt>
      <trkpt lat="62.73152" lon="6.78636">
        <ele>100.685208</ele>
        <time>2020-08-02T08:09:44.876Z</time>
      </trkpt>
      <trkpt lat="62.73167" lon="6.79086">
        <ele>93.87973</ele>
        <time>2020-08-02T08:10:28.857Z</time>
      </trkpt>
      <trkpt lat="62.73182" lon="6.7955">
        <ele>90.286709</ele>
        <time>2020-08-02T08:11:13.860Z</time>
      </trkpt>
      <trkpt lat="62.73213" lon="6.8002">
        <ele>91.711025</ele>
        <time>2020-08-02T08:11:55.870Z</time>
      </trkpt>
      <trkpt lat="62.7325" lon="6.80697">
        <ele>85.60047</ele>
        <time>2020-08-02T08:12:37.894Z</time>
      </trkpt>
      <trkpt lat="62.73285" lon="6.812">
        <ele>88.739671</ele>
        <time>2020-08-02T08:13:49.874Z</time>
      </trkpt>
      <trkpt lat="62.73264" lon="6.81725">
        <ele>90.025658</ele>
        <time>2020-08-02T08:14:55.880Z</time>
      </trkpt>
      <trkpt lat="62.73249" lon="6.82268">
        <ele>84.605583</ele>
        <time>2020-08-02T08:15:49.852Z</time>
      </trkpt>
      <trkpt lat="62.7324" lon="6.8283">
        <ele>77.764987</ele>
        <time>2020-08-02T08:16:55.864Z</time>
      </trkpt>
      <trkpt lat="62.73297" lon="6.83325">
        <ele>77.87111</ele>
        <time>2020-08-02T08:17:37.872Z</time>
      </trkpt>
      <trkpt lat="62.73441" lon="6.83852">
        <ele>70.683579</ele>
        <time>2020-08-02T08:18:12.894Z</time>
      </trkpt>
      <trkpt lat="62.73608" lon="6.84288">
        <ele>60.574139</ele>
        <time>2020-08-02T08:18:45.860Z</time>
      </trkpt>
      <trkpt lat="62.73728" lon="6.84771">
        <ele>57.744247</ele>
        <time>2020-08-02T08:19:27.877Z</time>
      </trkpt>
      <trkpt lat="62.73829" lon="6.85306">
        <ele>60.37677</ele>
        <time>2020-08-02T08:20:10.862Z</time>
      </trkpt>
      <trkpt lat="62.73911" lon="6.85803">
        <ele>59.385437</ele>
        <time>2020-08-02T08:20:55.875Z</time>
      </trkpt>
      <trkpt lat="62.7399" lon="6.86277">
        <ele>59.037683</ele>
        <time>2020-08-02T08:21:38.855Z</time>
      </trkpt>
      <trkpt lat="62.74083" lon="6.86727">
        <ele>71.320159</ele>
        <time>2020-08-02T08:22:58.872Z</time>
      </trkpt>
      <trkpt lat="62.74223" lon="6.8709">
        <ele>77.386511</ele>
        <time>2020-08-02T08:24:26.851Z</time>
      </trkpt>
      <trkpt lat="62.74274" lon="6.87636">
        <ele>73.34798</ele>
        <time>2020-08-02T08:25:19.902Z</time>
      </trkpt>
      <trkpt lat="62.74332" lon="6.88142">
        <ele>67.272196</ele>
        <time>2020-08-02T08:25:46.861Z</time>
      </trkpt>
      <trkpt lat="62.74412" lon="6.88659">
        <ele>60.412656</ele>
        <time>2020-08-02T08:26:32.902Z</time>
      </trkpt>
      <trkpt lat="62.74471" lon="6.89186">
        <ele>60.097947</ele>
        <time>2020-08-02T08:27:16.866Z</time>
      </trkpt>
      <trkpt lat="62.74526" lon="6.89666">
        <ele>64.669498</ele>
        <time>2020-08-02T08:27:59.865Z</time>
      </trkpt>
      <trkpt lat="62.74605" lon="6.90235">
        <ele>61.573166</ele>
        <time>2020-08-02T08:28:41.869Z</time>
      </trkpt>
      <trkpt lat="62.74581" lon="6.90709">
        <ele>69.799017</ele>
        <time>2020-08-02T08:30:05.868Z</time>
      </trkpt>
      <trkpt lat="62.74576" lon="6.91151">
        <ele>94.484001</ele>
        <time>2020-08-02T08:31:53.862Z</time>
      </trkpt>
      <trkpt lat="62.74629" lon="6.91594">
        <ele>100.689152</ele>
        <time>2020-08-02T08:34:27.873Z</time>
      </trkpt>
      <trkpt lat="62.74547" lon="6.92003">
        <ele>95.86695</ele>
        <time>2020-08-02T08:35:53.874Z</time>
      </trkpt>
      <trkpt lat="62.7429" lon="6.92128">
        <ele>91.030347</ele>
        <time>2020-08-02T08:36:24.894Z</time>
      </trkpt>
      <trkpt lat="62.74114" lon="6.92626">
        <ele>85.720738</ele>
        <time>2020-08-02T08:37:07.864Z</time>
      </trkpt>
      <trkpt lat="62.73911" lon="6.92751">
        <ele>94.038958</ele>
        <time>2020-08-02T08:38:13.891Z</time>
      </trkpt>
      <trkpt lat="62.73699" lon="6.92779">
        <ele>96.023412</ele>
        <time>2020-08-02T08:39:54.880Z</time>
      </trkpt>
      <trkpt lat="62.73446" lon="6.92947">
        <ele>93.023613</ele>
        <time>2020-08-02T08:40:47.869Z</time>
      </trkpt>
      <trkpt lat="62.73284" lon="6.93257">
        <ele>100.094163</ele>
        <time>2020-08-02T08:41:55.886Z</time>
      </trkpt>
      <trkpt lat="62.73089" lon="6.93372">
        <ele>99.262945</ele>
        <time>2020-08-02T08:43:35.883Z</time>
      </trkpt>
      <trkpt lat="62.72878" lon="6.932">
        <ele>85.897057</ele>
        <time>2020-08-02T08:43:57.874Z</time>
      </trkpt>
      <trkpt lat="62.72633" lon="6.93228">
        <ele>72.582233</ele>
        <time>2020-08-02T08:44:18.892Z</time>
      </trkpt>
      <trkpt lat="62.72394" lon="6.93417">
        <ele>59.298582</ele>
        <time>2020-08-02T08:44:41.916Z</time>
      </trkpt>
      <trkpt lat="62.72133" lon="6.93567">
        <ele>54.952</ele>
        <time>2020-08-02T08:45:16.863Z</time>
      </trkpt>
      <trkpt lat="62.71925" lon="6.93788">
        <ele>63.362243</ele>
        <time>2020-08-02T09:11:17.831Z</time>
      </trkpt>
      <trkpt lat="62.71898" lon="6.94345">
        <ele>71.050035</ele>
        <time>2020-08-02T09:13:20.851Z</time>
      </trkpt>
      <trkpt lat="62.72017" lon="6.94776">
        <ele>67.542855</ele>
        <time>2020-08-02T09:14:15.857Z</time>
      </trkpt>
      <trkpt lat="62.7292" lon="6.98969">
        <ele>62.173522</ele>
        <time>2020-08-02T09:26:36.660Z</time>
      </trkpt>
      <trkpt lat="62.73022" lon="6.99405">
        <ele>68.104607</ele>
        <time>2020-08-02T09:27:41.663Z</time>
      </trkpt>
      <trkpt lat="62.73087" lon="6.99835">
        <ele>81.595965</ele>
        <time>2020-08-02T09:29:11.654Z</time>
      </trkpt>
      <trkpt lat="62.73018" lon="7.00292">
        <ele>92.647788</ele>
        <time>2020-08-02T09:30:52.676Z</time>
      </trkpt>
      <trkpt lat="62.72964" lon="7.0074">
        <ele>91.60391</ele>
        <time>2020-08-02T09:32:19.669Z</time>
      </trkpt>
      <trkpt lat="62.72985" lon="7.01207">
        <ele>109.248315</ele>
        <time>2020-08-02T09:35:55.675Z</time>
      </trkpt>
      <trkpt lat="62.73179" lon="7.01142">
        <ele>113.023917</ele>
        <time>2020-08-02T09:37:02.655Z</time>
      </trkpt>
      <trkpt lat="62.73262" lon="7.00622">
        <ele>97.822896</ele>
        <time>2020-08-02T09:37:42.678Z</time>
      </trkpt>
      <trkpt lat="62.73245" lon="7.00119">
        <ele>95.396423</ele>
        <time>2020-08-02T09:38:26.663Z</time>
      </trkpt>
      <trkpt lat="62.7321" lon="6.99586">
        <ele>94.220476</ele>
        <time>2020-08-02T09:39:08.691Z</time>
      </trkpt>
      <trkpt lat="62.7319" lon="6.99053">
        <ele>95.751089</ele>
        <time>2020-08-02T09:39:50.658Z</time>
      </trkpt>
      <trkpt lat="62.73188" lon="6.98553">
        <ele>100.231981</ele>
        <time>2020-08-02T09:40:51.654Z</time>
      </trkpt>
      <trkpt lat="62.73418" lon="6.98615">
        <ele>94.150665</ele>
        <time>2020-08-02T09:41:37.697Z</time>
      </trkpt>
      <trkpt lat="62.73687" lon="6.98778">
        <ele>82.071614</ele>
        <time>2020-08-02T09:42:21.663Z</time>
      </trkpt>
      <trkpt lat="62.73959" lon="6.98983">
        <ele>80.692935</ele>
        <time>2020-08-02T09:43:03.666Z</time>
      </trkpt>
      <trkpt lat="62.74166" lon="6.99179">
        <ele>85.74369</ele>
        <time>2020-08-02T09:43:45.650Z</time>
      </trkpt>
      <trkpt lat="62.74398" lon="6.99293">
        <ele>88.571624</ele>
        <time>2020-08-02T09:44:31.674Z</time>
      </trkpt>
      <trkpt lat="62.74563" lon="6.99593">
        <ele>97.096342</ele>
        <time>2020-08-02T09:45:49.686Z</time>
      </trkpt>
      <trkpt lat="62.7477" lon="6.99652">
        <ele>105.320562</ele>
        <time>2020-08-02T09:47:09.662Z</time>
      </trkpt>
      <trkpt lat="62.74996" lon="6.9948">
        <ele>97.464883</ele>
        <time>2020-08-02T09:47:55.692Z</time>
      </trkpt>
      <trkpt lat="62.75237" lon="6.99427">
        <ele>94.917187</ele>
        <time>2020-08-02T09:48:51.680Z</time>
      </trkpt>
      <trkpt lat="62.75426" lon="6.99653">
        <ele>94.868234</ele>
        <time>2020-08-02T09:49:35.671Z</time>
      </trkpt>
      <trkpt lat="62.75577" lon="6.9993">
        <ele>90.934097</ele>
        <time>2020-08-02T09:50:33.684Z</time>
      </trkpt>
      <trkpt lat="62.75792" lon="7.00111">
        <ele>94.421078</ele>
        <time>2020-08-02T09:51:41.677Z</time>
      </trkpt>
      <trkpt lat="62.76037" lon="7.00064">
        <ele>96.074735</ele>
        <time>2020-08-02T09:52:46.676Z</time>
      </trkpt>
      <trkpt lat="62.76303" lon="6.99892">
        <ele>87.727834</ele>
        <time>2020-08-02T09:53:28.674Z</time>
      </trkpt>
      <trkpt lat="62.76512" lon="6.99659">
        <ele>87.34483</ele>
        <time>2020-08-02T09:54:22.677Z</time>
      </trkpt>
      <trkpt lat="62.76742" lon="6.99477">
        <ele>84.509821</ele>
        <time>2020-08-02T09:55:09.681Z</time>
      </trkpt>
      <trkpt lat="62.76951" lon="6.99363">
        <ele>82.609477</ele>
        <time>2020-08-02T09:55:52.674Z</time>
      </trkpt>
      <trkpt lat="62.77157" lon="6.99271">
        <ele>89.208306</ele>
        <time>2020-08-02T09:57:13.667Z</time>
      </trkpt>
      <trkpt lat="62.77314" lon="6.99222">
        <ele>92.257804</ele>
        <time>2020-08-02T09:58:32.671Z</time>
      </trkpt>
      <trkpt lat="62.77541" lon="6.99179">
        <ele>84.303724</ele>
        <time>2020-08-02T09:59:23.662Z</time>
      </trkpt>
      <trkpt lat="62.7775" lon="6.99227">
        <ele>86.340373</ele>
        <time>2020-08-02T10:01:53.705Z</time>
      </trkpt>
      <trkpt lat="62.77937" lon="6.99458">
        <ele>91.526161</ele>
        <time>2020-08-02T10:03:05.675Z</time>
      </trkpt>
      <trkpt lat="62.7809" lon="6.99791">
        <ele>97.465636</ele>
        <time>2020-08-02T10:04:23.673Z</time>
      </trkpt>
      <trkpt lat="62.78272" lon="7.00278">
        <ele>90.680975</ele>
        <time>2020-08-02T10:05:10.656Z</time>
      </trkpt>
      <trkpt lat="62.7841" lon="7.00691">
        <ele>91.360431</ele>
        <time>2020-08-02T10:06:07.659Z</time>
      </trkpt>
      <trkpt lat="62.78569" lon="7.0108">
        <ele>94.388091</ele>
        <time>2020-08-02T10:06:59.664Z</time>
      </trkpt>
      <trkpt lat="62.78723" lon="7.0135">
        <ele>91.708014</ele>
        <time>2020-08-02T10:07:51.692Z</time>
      </trkpt>
      <trkpt lat="62.78937" lon="7.01154">
        <ele>92.292419</ele>
        <time>2020-08-02T10:08:51.672Z</time>
      </trkpt>
      <trkpt lat="62.791" lon="7.00799">
        <ele>92.138189</ele>
        <time>2020-08-02T10:10:03.657Z</time>
      </trkpt>
      <trkpt lat="62.79274" lon="7.00406">
        <ele>94.282377</ele>
        <time>2020-08-02T10:11:06.658Z</time>
      </trkpt>
      <trkpt lat="62.79415" lon="6.99976">
        <ele>100.109503</ele>
        <time>2020-08-02T10:12:06.706Z</time>
      </trkpt>
      <trkpt lat="62.79518" lon="6.9949">
        <ele>100.542057</ele>
        <time>2020-08-02T10:13:03.674Z</time>
      </trkpt>
      <trkpt lat="62.79693" lon="6.99433">
        <ele>96.865754</ele>
        <time>2020-08-02T10:13:49.675Z</time>
      </trkpt>
      <trkpt lat="62.79911" lon="6.99619">
        <ele>100.527768</ele>
        <time>2020-08-02T10:15:09.676Z</time>
      </trkpt>
      <trkpt lat="62.80011" lon="7.00139">
        <ele>92.486966</ele>
        <time>2020-08-02T10:15:57.667Z</time>
      </trkpt>
      <trkpt lat="62.80201" lon="7.00485">
        <ele>89.017171</ele>
        <time>2020-08-02T10:16:38.674Z</time>
      </trkpt>
      <trkpt lat="62.80422" lon="7.00856">
        <ele>83.08607</ele>
        <time>2020-08-02T10:17:24.671Z</time>
      </trkpt>
      <trkpt lat="62.80623" lon="7.01248">
        <ele>75.44006</ele>
        <time>2020-08-02T10:18:01.686Z</time>
      </trkpt>
      <trkpt lat="62.80863" lon="7.0145">
        <ele>66.040389</ele>
        <time>2020-08-02T10:18:30.686Z</time>
      </trkpt>
      <trkpt lat="62.81067" lon="7.01745">
        <ele>56.4843</ele>
        <time>2020-08-02T10:18:55.673Z</time>
      </trkpt>
      <trkpt lat="62.81213" lon="7.02097">
        <ele>54.389093</ele>
        <time>2020-08-02T10:19:37.675Z</time>
      </trkpt>
      <trkpt lat="62.81394" lon="7.02428">
        <ele>54.427578</ele>
        <time>2020-08-02T10:20:21.657Z</time>
      </trkpt>
      <trkpt lat="62.81507" lon="7.02835">
        <ele>56.42933</ele>
        <time>2020-08-02T10:21:16.712Z</time>
      </trkpt>
      <trkpt lat="62.81614" lon="7.03239">
        <ele>61.603314</ele>
        <time>2020-08-02T10:22:20.681Z</time>
      </trkpt>
      <trkpt lat="62.81632" lon="7.03827">
        <ele>55.789494</ele>
        <time>2020-08-02T10:23:24.675Z</time>
      </trkpt>
      <trkpt lat="62.81644" lon="7.04423">
        <ele>51.28482</ele>
        <time>2020-08-02T10:24:01.698Z</time>
      </trkpt>
      <trkpt lat="62.81708" lon="7.04908">
        <ele>55.897837</ele>
        <time>2020-08-02T10:25:03.686Z</time>
      </trkpt>
      <trkpt lat="62.81729" lon="7.05379">
        <ele>63.650379</ele>
        <time>2020-08-02T10:26:31.658Z</time>
      </trkpt>
      <trkpt lat="62.81753" lon="7.05878">
        <ele>68.129656</ele>
        <time>2020-08-02T10:27:48.675Z</time>
      </trkpt>
      <trkpt lat="62.81778" lon="7.06359">
        <ele>66.139576</ele>
        <time>2020-08-02T10:28:32.661Z</time>
      </trkpt>
      <trkpt lat="62.81648" lon="7.06815">
        <ele>60.972004</ele>
        <time>2020-08-02T10:29:11.662Z</time>
      </trkpt>
      <trkpt lat="62.81585" lon="7.07292">
        <ele>65.199577</ele>
        <time>2020-08-02T10:30:08.728Z</time>
      </trkpt>
      <trkpt lat="62.8149" lon="7.0783">
        <ele>56.40488</ele>
        <time>2020-08-02T10:30:48.660Z</time>
      </trkpt>
      <trkpt lat="62.81467" lon="7.08373">
        <ele>52.674022</ele>
        <time>2020-08-02T10:31:23.661Z</time>
      </trkpt>
      <trkpt lat="62.81612" lon="7.08799">
        <ele>55.156436</ele>
        <time>2020-08-02T10:32:08.669Z</time>
      </trkpt>
      <trkpt lat="62.81754" lon="7.09177">
        <ele>54.803642</ele>
        <time>2020-08-02T10:32:55.660Z</time>
      </trkpt>
      <trkpt lat="62.8179" lon="7.097">
        <ele>51.465922</ele>
        <time>2020-08-02T10:33:56.674Z</time>
      </trkpt>
      <trkpt lat="62.81656" lon="7.10134">
        <ele>50.789259</ele>
        <time>2020-08-02T10:34:46.666Z</time>
      </trkpt>
      <trkpt lat="62.81449" lon="7.10131">
        <ele>53.595442</ele>
        <time>2020-08-02T10:35:34.679Z</time>
      </trkpt>
      <trkpt lat="62.81271" lon="7.10298">
        <ele>56.947017</ele>
        <time>2020-08-02T10:36:44.689Z</time>
      </trkpt>
      <trkpt lat="62.81289" lon="7.10787">
        <ele>66.826713</ele>
        <time>2020-08-02T10:38:21.671Z</time>
      </trkpt>
      <trkpt lat="62.8131" lon="7.11227">
        <ele>79.513356</ele>
        <time>2020-08-02T10:40:33.657Z</time>
      </trkpt>
      <trkpt lat="62.81338" lon="7.11717">
        <ele>81.560701</ele>
        <time>2020-08-02T10:41:56.684Z</time>
      </trkpt>
      <trkpt lat="62.81398" lon="7.12216">
        <ele>85.471569</ele>
        <time>2020-08-02T10:43:02.667Z</time>
      </trkpt>
      <trkpt lat="62.81452" lon="7.12684">
        <ele>90.37277</ele>
        <time>2020-08-02T10:44:10.673Z</time>
      </trkpt>
      <trkpt lat="62.81534" lon="7.13166">
        <ele>89.151921</ele>
        <time>2020-08-02T10:45:04.666Z</time>
      </trkpt>
      <trkpt lat="62.81629" lon="7.13616">
        <ele>95.414903</ele>
        <time>2020-08-02T10:46:20.665Z</time>
      </trkpt>
      <trkpt lat="62.81717" lon="7.14036">
        <ele>100.52297</ele>
        <time>2020-08-02T10:47:27.678Z</time>
      </trkpt>
      <trkpt lat="62.81764" lon="7.14567">
        <ele>101.143966</ele>
        <time>2020-08-02T10:48:34.677Z</time>
      </trkpt>
      <trkpt lat="62.81737" lon="7.15067">
        <ele>99.192433</ele>
        <time>2020-08-02T10:49:30.710Z</time>
      </trkpt>
      <trkpt lat="62.81412" lon="7.15221">
        <ele>87.587632</ele>
        <time>2020-08-02T10:50:14.708Z</time>
      </trkpt>
      <trkpt lat="62.81181" lon="7.15359">
        <ele>78.795028</ele>
        <time>2020-08-02T10:50:38.671Z</time>
      </trkpt>
      <trkpt lat="62.80972" lon="7.15509">
        <ele>70.677336</ele>
        <time>2020-08-02T10:50:59.670Z</time>
      </trkpt>
      <trkpt lat="62.80758" lon="7.15799">
        <ele>60.194072</ele>
        <time>2020-08-02T10:51:21.657Z</time>
      </trkpt>
      <trkpt lat="62.80595" lon="7.16161">
        <ele>51.466334</ele>
        <time>2020-08-02T10:51:42.665Z</time>
      </trkpt>
      <trkpt lat="62.80432" lon="7.16667">
        <ele>48.031275</ele>
        <time>2020-08-02T10:52:24.684Z</time>
      </trkpt>
      <trkpt lat="62.80343" lon="7.17161">
        <ele>50.155333</ele>
        <time>2020-08-02T10:53:17.685Z</time>
      </trkpt>
      <trkpt lat="62.80308" lon="7.17646">
        <ele>49.81896</ele>
        <time>2020-08-02T10:54:05.679Z</time>
      </trkpt>
      <trkpt lat="62.80274" lon="7.18124">
        <ele>52.009721</ele>
        <time>2020-08-02T10:54:52.685Z</time>
      </trkpt>
      <trkpt lat="62.80255" lon="7.18576">
        <ele>60.515102</ele>
        <time>2020-08-02T10:56:14.685Z</time>
      </trkpt>
      <trkpt lat="62.80262" lon="7.19064">
        <ele>61.418606</ele>
        <time>2020-08-02T10:57:13.673Z</time>
      </trkpt>
      <trkpt lat="62.80313" lon="7.19691">
        <ele>52.819488</ele>
        <time>2020-08-02T10:57:57.663Z</time>
      </trkpt>
      <trkpt lat="62.80396" lon="7.20246">
        <ele>50.662261</ele>
        <time>2020-08-02T10:58:39.674Z</time>
      </trkpt>
      <trkpt lat="62.80469" lon="7.2072">
        <ele>58.86475</ele>
        <time>2020-08-02T10:59:42.697Z</time>
      </trkpt>
      <trkpt lat="62.80541" lon="7.21156">
        <ele>64.764306</ele>
        <time>2020-08-02T11:00:46.700Z</time>
      </trkpt>
      <trkpt lat="62.80601" lon="7.21679">
        <ele>60.966981</ele>
        <time>2020-08-02T11:01:36.689Z</time>
      </trkpt>
      <trkpt lat="62.80592" lon="7.22236">
        <ele>55.814546</ele>
        <time>2020-08-02T11:02:32.699Z</time>
      </trkpt>
      <trkpt lat="62.80498" lon="7.22669">
        <ele>55.44229</ele>
        <time>2020-08-02T11:03:31.717Z</time>
      </trkpt>
      <trkpt lat="62.80324" lon="7.22998">
        <ele>58.752248</ele>
        <time>2020-08-02T11:04:26.674Z</time>
      </trkpt>
      <trkpt lat="62.80258" lon="7.23425">
        <ele>73.548838</ele>
        <time>2020-08-02T11:06:53.673Z</time>
      </trkpt>
      <trkpt lat="62.80318" lon="7.2384">
        <ele>78.003084</ele>
        <time>2020-08-02T11:08:47.704Z</time>
      </trkpt>
      <trkpt lat="62.80527" lon="7.24155">
        <ele>68.749465</ele>
        <time>2020-08-02T11:09:31.680Z</time>
      </trkpt>
      <trkpt lat="62.80619" lon="7.24543">
        <ele>71.797634</ele>
        <time>2020-08-02T11:11:10.692Z</time>
      </trkpt>
      <trkpt lat="62.80806" lon="7.24661">
        <ele>80.820661</ele>
        <time>2020-08-02T11:13:05.692Z</time>
      </trkpt>
      <trkpt lat="62.81023" lon="7.24624">
        <ele>87.492082</ele>
        <time>2020-08-02T11:14:16.666Z</time>
      </trkpt>
      <trkpt lat="62.81225" lon="7.24614">
        <ele>98.215129</ele>
        <time>2020-08-02T11:16:45.670Z</time>
      </trkpt>
      <trkpt lat="62.81422" lon="7.24412">
        <ele>101.469683</ele>
        <time>2020-08-02T11:18:04.713Z</time>
      </trkpt>
      <trkpt lat="62.81615" lon="7.24118">
        <ele>102.369743</ele>
        <time>2020-08-02T11:19:11.677Z</time>
      </trkpt>
      <trkpt lat="62.81764" lon="7.23803">
        <ele>99.2602</ele>
        <time>2020-08-02T11:20:16.670Z</time>
      </trkpt>
      <trkpt lat="62.81987" lon="7.23695">
        <ele>100.545557</ele>
        <time>2020-08-02T11:21:33.683Z</time>
      </trkpt>
      <trkpt lat="62.82202" lon="7.23766">
        <ele>103.49256</ele>
        <time>2020-08-02T11:22:36.687Z</time>
      </trkpt>
      <trkpt lat="62.82426" lon="7.23704">
        <ele>99.80542</ele>
        <time>2020-08-02T11:23:34.687Z</time>
      </trkpt>
      <trkpt lat="62.82746" lon="7.23595">
        <ele>89.487261</ele>
        <time>2020-08-02T11:24:18.679Z</time>
      </trkpt>
      <trkpt lat="62.83024" lon="7.23504">
        <ele>79.91257</ele>
        <time>2020-08-02T11:25:00.673Z</time>
      </trkpt>
      <trkpt lat="62.83301" lon="7.23459">
        <ele>73.301721</ele>
        <time>2020-08-02T11:25:42.704Z</time>
      </trkpt>
      <trkpt lat="62.83518" lon="7.23517">
        <ele>78.906624</ele>
        <time>2020-08-02T11:27:35.699Z</time>
      </trkpt>
      <trkpt lat="62.83708" lon="7.23706">
        <ele>81.80182</ele>
        <time>2020-08-02T11:48:06.558Z</time>
      </trkpt>
      <trkpt lat="62.83906" lon="7.23478">
        <ele>81.525929</ele>
        <time>2020-08-02T11:49:20.552Z</time>
      </trkpt>
      <trkpt lat="62.84124" lon="7.2315">
        <ele>73.346203</ele>
        <time>2020-08-02T11:50:01.545Z</time>
      </trkpt>
      <trkpt lat="62.84311" lon="7.2288">
        <ele>73.567199</ele>
        <time>2020-08-02T11:51:15.529Z</time>
      </trkpt>
      <trkpt lat="62.84514" lon="7.22652">
        <ele>74.986395</ele>
        <time>2020-08-02T11:52:22.530Z</time>
      </trkpt>
      <trkpt lat="62.84694" lon="7.22346">
        <ele>77.065668</ele>
        <time>2020-08-02T11:53:20.547Z</time>
      </trkpt>
      <trkpt lat="62.84884" lon="7.22077">
        <ele>81.191986</ele>
        <time>2020-08-02T11:54:20.557Z</time>
      </trkpt>
      <trkpt lat="62.85044" lon="7.21732">
        <ele>86.062562</ele>
        <time>2020-08-02T11:55:26.541Z</time>
      </trkpt>
      <trkpt lat="62.85186" lon="7.21301">
        <ele>84.684716</ele>
        <time>2020-08-02T11:56:24.564Z</time>
      </trkpt>
      <trkpt lat="62.85318" lon="7.20737">
        <ele>74.727522</ele>
        <time>2020-08-02T11:57:08.540Z</time>
      </trkpt>
      <trkpt lat="62.85412" lon="7.20241">
        <ele>68.248961</ele>
        <time>2020-08-02T11:57:44.562Z</time>
      </trkpt>
      <trkpt lat="62.85518" lon="7.19777">
        <ele>70.948319</ele>
        <time>2020-08-02T11:58:38.514Z</time>
      </trkpt>
      <trkpt lat="62.85578" lon="7.19203">
        <ele>73.131014</ele>
        <time>2020-08-02T11:59:44.544Z</time>
      </trkpt>
      <trkpt lat="62.85555" lon="7.18693">
        <ele>73.578565</ele>
        <time>2020-08-02T12:00:50.523Z</time>
      </trkpt>
      <trkpt lat="62.85524" lon="7.18235">
        <ele>76.648829</ele>
        <time>2020-08-02T12:01:53.538Z</time>
      </trkpt>
      <trkpt lat="62.85476" lon="7.17741">
        <ele>81.977504</ele>
        <time>2020-08-02T12:03:20.523Z</time>
      </trkpt>
      <trkpt lat="62.85417" lon="7.17285">
        <ele>86.848014</ele>
        <time>2020-08-02T12:04:33.572Z</time>
      </trkpt>
      <trkpt lat="62.85404" lon="7.16716">
        <ele>87.228384</ele>
        <time>2020-08-02T12:05:39.552Z</time>
      </trkpt>
      <trkpt lat="62.85377" lon="7.16224">
        <ele>88.460683</ele>
        <time>2020-08-02T12:06:45.554Z</time>
      </trkpt>
      <trkpt lat="62.8535" lon="7.15686">
        <ele>86.444583</ele>
        <time>2020-08-02T12:07:48.532Z</time>
      </trkpt>
      <trkpt lat="62.85351" lon="7.15166">
        <ele>88.475417</ele>
        <time>2020-08-02T12:08:52.569Z</time>
      </trkpt>
      <trkpt lat="62.85384" lon="7.14616">
        <ele>85.525607</ele>
        <time>2020-08-02T12:09:52.533Z</time>
      </trkpt>
      <trkpt lat="62.85404" lon="7.14086">
        <ele>84.719385</ele>
        <time>2020-08-02T12:10:46.544Z</time>
      </trkpt>
      <trkpt lat="62.85429" lon="7.13547">
        <ele>85.030197</ele>
        <time>2020-08-02T12:11:49.551Z</time>
      </trkpt>
      <trkpt lat="62.85322" lon="7.1304">
        <ele>76.981121</ele>
        <time>2020-08-02T12:12:52.541Z</time>
      </trkpt>
      <trkpt lat="62.85245" lon="7.12596">
        <ele>78.288499</ele>
        <time>2020-08-02T12:13:38.552Z</time>
      </trkpt>
      <trkpt lat="62.85219" lon="7.12132">
        <ele>85.812348</ele>
        <time>2020-08-02T12:14:53.564Z</time>
      </trkpt>
      <trkpt lat="62.85156" lon="7.11624">
        <ele>89.029551</ele>
        <time>2020-08-02T12:16:02.536Z</time>
      </trkpt>
      <trkpt lat="62.85072" lon="7.11065">
        <ele>79.458582</ele>
        <time>2020-08-02T12:16:50.568Z</time>
      </trkpt>
      <trkpt lat="62.84991" lon="7.10579">
        <ele>75.310883</ele>
        <time>2020-08-02T12:20:58.550Z</time>
      </trkpt>
      <trkpt lat="62.84895" lon="7.10159">
        <ele>74.844686</ele>
        <time>2020-08-02T12:21:43.544Z</time>
      </trkpt>
      <trkpt lat="62.84815" lon="7.09728">
        <ele>80.576788</ele>
        <time>2020-08-02T12:22:34.573Z</time>
      </trkpt>
      <trkpt lat="62.84761" lon="7.09273">
        <ele>84.436857</ele>
        <time>2020-08-02T12:23:40.556Z</time>
      </trkpt>
      <trkpt lat="62.84709" lon="7.08739">
        <ele>82.299716</ele>
        <time>2020-08-02T12:24:35.586Z</time>
      </trkpt>
      <trkpt lat="62.84617" lon="7.08214">
        <ele>80.476748</ele>
        <time>2020-08-02T12:25:18.565Z</time>
      </trkpt>
      <trkpt lat="62.84485" lon="7.07817">
        <ele>84.029433</ele>
        <time>2020-08-02T12:26:28.561Z</time>
      </trkpt>
      <trkpt lat="62.84324" lon="7.07338">
        <ele>85.389729</ele>
        <time>2020-08-02T12:27:19.546Z</time>
      </trkpt>
      <trkpt lat="62.84188" lon="7.06935">
        <ele>93.401363</ele>
        <time>2020-08-02T12:28:26.547Z</time>
      </trkpt>
      <trkpt lat="62.84103" lon="7.06445">
        <ele>89.60634</ele>
        <time>2020-08-02T12:29:22.552Z</time>
      </trkpt>
      <trkpt lat="62.84047" lon="7.05862">
        <ele>80.816596</ele>
        <time>2020-08-02T12:30:04.543Z</time>
      </trkpt>
      <trkpt lat="62.83994" lon="7.05386">
        <ele>81.967229</ele>
        <time>2020-08-02T12:30:49.533Z</time>
      </trkpt>
      <trkpt lat="62.83936" lon="7.04793">
        <ele>75.78192</ele>
        <time>2020-08-02T12:31:31.542Z</time>
      </trkpt>
      <trkpt lat="62.83975" lon="7.04174">
        <ele>64.805132</ele>
        <time>2020-08-02T12:32:08.549Z</time>
      </trkpt>
      <trkpt lat="62.84121" lon="7.03584">
        <ele>52.762097</ele>
        <time>2020-08-02T12:32:46.534Z</time>
      </trkpt>
      <trkpt lat="62.84251" lon="7.03144">
        <ele>56.823958</ele>
        <time>2020-08-02T12:34:01.560Z</time>
      </trkpt>
      <trkpt lat="62.84375" lon="7.02809">
        <ele>63.600253</ele>
        <time>2020-08-02T12:35:10.548Z</time>
      </trkpt>
      <trkpt lat="62.84583" lon="7.02548">
        <ele>69.912314</ele>
        <time>2020-08-02T12:36:31.581Z</time>
      </trkpt>
      <trkpt lat="62.84858" lon="7.02233">
        <ele>60.523581</ele>
        <time>2020-08-02T12:37:13.540Z</time>
      </trkpt>
      <trkpt lat="62.85103" lon="7.01955">
        <ele>56.855793</ele>
        <time>2020-08-02T12:37:55.548Z</time>
      </trkpt>
      <trkpt lat="62.85311" lon="7.01716">
        <ele>60.152771</ele>
        <time>2020-08-02T12:38:57.543Z</time>
      </trkpt>
      <trkpt lat="62.85491" lon="7.01517">
        <ele>65.058828</ele>
        <time>2020-08-02T12:40:00.548Z</time>
      </trkpt>
      <trkpt lat="62.85696" lon="7.01419">
        <ele>63.160128</ele>
        <time>2020-08-02T12:41:04.550Z</time>
      </trkpt>
      <trkpt lat="62.85945" lon="7.01407">
        <ele>65.003232</ele>
        <time>2020-08-02T12:42:04.551Z</time>
      </trkpt>
      <trkpt lat="62.86186" lon="7.01387">
        <ele>62.666511</ele>
        <time>2020-08-02T12:42:52.563Z</time>
      </trkpt>
      <trkpt lat="62.86416" lon="7.01385">
        <ele>69.0779</ele>
        <time>2020-08-02T12:44:09.560Z</time>
      </trkpt>
      <trkpt lat="62.86626" lon="7.01383">
        <ele>73.601252</ele>
        <time>2020-08-02T12:45:19.544Z</time>
      </trkpt>
      <trkpt lat="62.86847" lon="7.0138">
        <ele>81.393077</ele>
        <time>2020-08-02T12:46:42.547Z</time>
      </trkpt>
      <trkpt lat="62.8707" lon="7.01335">
        <ele>78.892382</ele>
        <time>2020-08-02T12:47:28.552Z</time>
      </trkpt>
      <trkpt lat="62.87319" lon="7.0099">
        <ele>74.141681</ele>
        <time>2020-08-02T12:48:10.561Z</time>
      </trkpt>
      <trkpt lat="62.87446" lon="7.00606">
        <ele>67.340185</ele>
        <time>2020-08-02T12:48:52.563Z</time>
      </trkpt>
      <trkpt lat="62.87581" lon="7.0023">
        <ele>57.995163</ele>
        <time>2020-08-02T12:49:38.560Z</time>
      </trkpt>
      <trkpt lat="62.8763" lon="6.99735">
        <ele>55.229281</ele>
        <time>2020-08-02T12:50:21.550Z</time>
      </trkpt>
      <trkpt lat="62.87644" lon="6.9914">
        <ele>59.342005</ele>
        <time>2020-08-02T12:51:11.570Z</time>
      </trkpt>
      <trkpt lat="62.87656" lon="6.98675">
        <ele>64.698829</ele>
        <time>2020-08-02T12:52:29.541Z</time>
      </trkpt>
      <trkpt lat="62.87726" lon="6.98174">
        <ele>62.916721</ele>
        <time>2020-08-02T12:53:28.588Z</time>
      </trkpt>
      <trkpt lat="62.8786" lon="6.97562">
        <ele>54.595293</ele>
        <time>2020-08-02T12:54:13.535Z</time>
      </trkpt>
      <trkpt lat="62.88085" lon="6.97236">
        <ele>48.58354</ele>
        <time>2020-08-02T12:55:00.533Z</time>
      </trkpt>
      <trkpt lat="62.88309" lon="6.97113">
        <ele>46.015469</ele>
        <time>2020-08-02T12:55:44.547Z</time>
      </trkpt>
      <trkpt lat="62.8851" lon="6.97174">
        <ele>52.581629</ele>
        <time>2020-08-02T12:56:30.540Z</time>
      </trkpt>
      <trkpt lat="62.88653" lon="6.97569">
        <ele>54.514216</ele>
        <time>2020-08-02T12:57:25.554Z</time>
      </trkpt>
      <trkpt lat="62.88841" lon="6.97973">
        <ele>51.319295</ele>
        <time>2020-08-02T12:58:14.556Z</time>
      </trkpt>
      <trkpt lat="62.89033" lon="6.98259">
        <ele>51.968993</ele>
        <time>2020-08-02T12:59:04.550Z</time>
      </trkpt>
      <trkpt lat="62.89234" lon="6.98269">
        <ele>49.673528</ele>
        <time>2020-08-02T12:59:53.548Z</time>
      </trkpt>
      <trkpt lat="62.89383" lon="6.97879">
        <ele>46.730258</ele>
        <time>2020-08-02T13:00:44.539Z</time>
      </trkpt>
      <trkpt lat="62.89595" lon="6.97769">
        <ele>43.705699</ele>
        <time>2020-08-02T13:01:26.550Z</time>
      </trkpt>
      <trkpt lat="62.89784" lon="6.97539">
        <ele>45.72895</ele>
        <time>2020-08-02T13:02:11.543Z</time>
      </trkpt>
      <trkpt lat="62.89918" lon="6.97201">
        <ele>46.499003</ele>
        <time>2020-08-02T13:02:55.563Z</time>
      </trkpt>
      <trkpt lat="62.90047" lon="6.96847">
        <ele>45.472801</ele>
        <time>2020-08-02T13:03:42.552Z</time>
      </trkpt>
      <trkpt lat="62.90144" lon="6.96354">
        <ele>48.890061</ele>
        <time>2020-08-02T13:04:43.554Z</time>
      </trkpt>
      <trkpt lat="62.90264" lon="6.95954">
        <ele>55.439306</ele>
        <time>2020-08-02T13:05:47.561Z</time>
      </trkpt>
      <trkpt lat="62.90243" lon="6.95498">
        <ele>64.608642</ele>
        <time>2020-08-02T13:07:27.550Z</time>
      </trkpt>
      <trkpt lat="62.90291" lon="6.95027">
        <ele>68.618863</ele>
        <time>2020-08-02T13:08:50.582Z</time>
      </trkpt>
      <trkpt lat="62.90402" lon="6.94426">
        <ele>61.326928</ele>
        <time>2020-08-02T13:09:32.542Z</time>
      </trkpt>
      <trkpt lat="62.90445" lon="6.93849">
        <ele>58.132656</ele>
        <time>2020-08-02T13:10:16.549Z</time>
      </trkpt>
      <trkpt lat="62.90448" lon="6.93351">
        <ele>55.793582</ele>
        <time>2020-08-02T13:10:58.548Z</time>
      </trkpt>
      <trkpt lat="62.90426" lon="6.92898">
        <ele>55.302283</ele>
        <time>2020-08-02T13:11:59.539Z</time>
      </trkpt>
    </trkseg>
  </trk>
</gpx>